Time;durP1;ratioP1;P1;durP2;ratioP2;P2;SDS_P1;SDS_P2;PMS_P1;PMS_P2;Temp;Humidity;BMP_temperature;BMP_pressure;BME280_temperature;BME280_humidity;BME280_pressure;Samples;Min_cycle;Max_cycle;Signal;HPM_P1;HPM_P2
2020/12/07 00:02:14;;;;;;;42.10;23.13;;;5.80;99.90;;;;;;5097104;28;20168;-66
2020/12/07 00:04:39;;;;;;;36.90;22.40;;;5.80;99.90;;;;;;5096776;28;20568;-66
2020/12/07 00:07:05;;;;;;;36.53;21.70;;;5.40;99.90;;;;;;5096654;28;20175;-66
2020/12/07 00:09:30;;;;;;;31.43;20.50;;;5.60;1.00;;;;;;5096532;28;20211;-67
2020/12/07 00:11:56;;;;;;;36.30;19.30;;;5.30;1.00;;;;;;5096610;28;20186;-67
2020/12/07 00:14:21;;;;;;;33.23;19.63;;;5.50;1.00;;;;;;5096565;28;20183;-67
2020/12/07 00:16:47;;;;;;;27.00;17.40;;;5.40;99.90;;;;;;5096524;28;20199;-66
2020/12/07 00:19:13;;;;;;;32.33;19.83;;;5.10;1.00;;;;;;5096416;28;20595;-66
2020/12/07 00:21:42;;;;;;;33.03;18.92;;;5.00;43.60;;;;;;5096454;28;20189;-67
2020/12/07 00:24:08;;;;;;;29.85;18.75;;;5.00;1.00;;;;;;5096384;28;20190;-65
2020/12/07 00:26:33;;;;;;;24.83;17.93;;;5.30;1.00;;;;;;5097185;28;20258;-67
2020/12/07 00:28:59;;;;;;;29.57;19.47;;;5.20;1.00;;;;;;5096619;28;20236;-66
2020/12/07 00:31:26;;;;;;;26.87;16.50;;;5.00;99.90;;;;;;5096253;28;20244;-67
2020/12/07 00:33:52;;;;;;;34.05;18.48;;;5.20;1.00;;;;;;5096181;28;20179;-67
2020/12/07 00:36:18;;;;;;;29.45;17.73;;;5.30;1.00;;;;;;5096362;28;20215;-67
2020/12/07 00:38:43;;;;;;;28.17;16.50;;;5.50;99.90;;;;;;5096534;28;20537;-67
2020/12/07 00:41:09;;;;;;;25.07;15.97;;;5.20;91.40;;;;;;5096108;28;20555;-67
2020/12/07 00:43:34;;;;;;;24.80;16.90;;;5.50;48.90;;;;;;5096066;28;20155;-67
2020/12/07 00:46:00;;;;;;;29.13;18.10;;;5.60;99.90;;;;;;5095229;28;20172;-67
2020/12/07 00:48:25;;;;;;;34.07;18.53;;;5.60;99.90;;;;;;5095935;28;20194;-67
2020/12/07 00:50:51;;;;;;;26.67;17.10;;;5.10;99.90;;;;;;5096751;28;20183;-67
2020/12/07 00:53:16;;;;;;;33.23;19.83;;;4.90;99.90;;;;;;5096674;28;20216;-67
2020/12/07 00:55:42;;;;;;;32.87;19.97;;;5.10;99.90;;;;;;5095777;28;20545;-67
2020/12/07 00:58:07;;;;;;;34.20;19.30;;;4.90;99.90;;;;;;5095913;28;20659;-66
2020/12/07 01:00:33;;;;;;;32.53;21.03;;;4.90;99.90;;;;;;5095713;28;20171;-66
2020/12/07 01:02:59;;;;;;;33.43;20.77;;;5.20;1.00;;;;;;5096279;28;20178;-67
2020/12/07 01:05:24;;;;;;;33.10;20.10;;;5.10;1.00;;;;;;5095618;28;20203;-67
2020/12/07 01:07:50;;;;;;;30.03;17.90;;;5.40;99.90;;;;;;5095371;28;20175;-67
2020/12/07 01:10:15;;;;;;;32.90;19.83;;;5.00;99.90;;;;;;5095522;28;20616;-67
2020/12/07 01:12:41;;;;;;;25.73;17.67;;;5.10;99.90;;;;;;5095473;28;20321;-67
2020/12/07 01:15:06;;;;;;;30.00;19.37;;;4.80;99.90;;;;;;5095810;28;20199;-67
2020/12/07 01:17:32;;;;;;;28.73;17.23;;;5.10;1.00;;;;;;5095361;28;20175;-67
2020/12/07 01:19:57;;;;;;;30.00;18.70;;;4.90;99.90;;;;;;5095489;28;20198;-67
2020/12/07 01:22:23;;;;;;;25.63;17.90;;;5.00;99.90;;;;;;5095268;28;20250;-67
2020/12/07 01:24:49;;;;;;;27.70;17.60;;;5.20;99.90;;;;;;5095609;28;20168;-67
2020/12/07 01:27:14;;;;;;;27.90;19.20;;;4.90;1.00;;;;;;5095444;28;20521;-67
2020/12/07 01:29:40;;;;;;;31.97;19.50;;;5.10;99.90;;;;;;5095406;28;20198;-67
2020/12/07 01:32:05;;;;;;;28.57;20.07;;;5.10;99.90;;;;;;5095667;28;20179;-67
2020/12/07 01:34:31;;;;;;;27.10;18.67;;;5.30;99.90;;;;;;5095065;28;20183;-67
2020/12/07 01:36:56;;;;;;;23.33;18.07;;;5.30;1.00;;;;;;5094832;28;20572;-67
2020/12/07 01:39:22;;;;;;;30.57;19.13;;;5.30;99.90;;;;;;5094835;28;20187;-67
2020/12/07 01:41:48;;;;;;;29.90;19.30;;;5.40;99.90;;;;;;5094917;28;20175;-67
2020/12/07 01:44:13;;;;;;;26.70;19.30;;;5.10;99.90;;;;;;5095064;28;20244;-67
2020/12/07 01:46:39;;;;;;;26.03;18.57;;;4.90;18.10;;;;;;5094826;28;20207;-67
2020/12/07 01:49:04;;;;;;;24.63;16.17;;;5.10;99.90;;;;;;5094643;28;20195;-67
2020/12/07 01:51:30;;;;;;;25.63;19.50;;;4.90;99.90;;;;;;5094967;28;20532;-67
2020/12/07 01:53:56;;;;;;;26.90;16.83;;;4.90;99.90;;;;;;5094915;28;20262;-67
2020/12/07 01:56:29;;;;;;;24.30;18.40;;;4.70;1.00;;;;;;5094625;28;20213;-67
2020/12/07 01:58:59;;;;;;;27.67;18.48;;;4.80;1.00;;;;;;5094472;28;20557;-67
2020/12/07 02:01:26;;;;;;;26.08;18.42;;;4.80;1.00;;;;;;5095389;28;20144;-67
2020/12/07 02:03:52;;;;;;;25.58;17.85;;;4.90;1.00;;;;;;5094699;28;20258;-67
2020/12/07 02:06:18;;;;;;;22.52;17.17;;;5.00;1.00;;;;;;5094697;28;20179;-67
2020/12/07 02:08:48;;;;;;;23.00;16.90;;;4.90;1.00;;;;;;5094791;28;20207;-67
2020/12/07 02:11:14;;;;;;;22.42;17.00;;;4.90;1.00;;;;;;5095185;28;20223;-66
2020/12/07 02:13:39;;;;;;;24.17;16.77;;;5.00;1.00;;;;;;5094663;28;20250;-67
2020/12/07 02:16:05;;;;;;;23.63;18.17;;;4.80;1.00;;;;;;5094190;28;20191;-67
2020/12/07 02:18:30;;;;;;;27.33;18.63;;;5.00;1.00;;;;;;5094377;28;20244;-67
2020/12/07 02:20:56;;;;;;;20.80;15.87;;;5.00;99.90;;;;;;5094703;28;20187;-67
2020/12/07 02:23:21;;;;;;;26.43;18.63;;;4.80;1.00;;;;;;5094605;28;20168;-66
2020/12/07 02:25:47;;;;;;;22.40;17.20;;;4.90;1.00;;;;;;5094017;28;20179;-67
2020/12/07 02:28:12;;;;;;;27.07;17.87;;;4.90;1.00;;;;;;5093898;28;20194;-67
2020/12/07 02:30:38;;;;;;;22.50;16.40;;;5.00;1.00;;;;;;5094247;28;20168;-67
2020/12/07 02:33:03;;;;;;;22.57;17.07;;;4.80;99.90;;;;;;5093892;28;20195;-66
2020/12/07 02:35:29;;;;;;;24.13;16.57;;;5.10;1.00;;;;;;5093845;28;20230;-67
2020/12/07 02:37:54;;;;;;;25.87;18.00;;;4.80;99.90;;;;;;5094069;28;20167;-69
2020/12/07 02:40:20;;;;;;;24.97;17.70;;;4.80;1.00;;;;;;5093848;28;20202;-67
2020/12/07 02:42:45;;;;;;;26.10;18.73;;;4.80;1.00;;;;;;5093751;28;20155;-67
2020/12/07 02:45:13;;;;;;;22.93;17.17;;;4.70;1.00;;;;;;5093694;28;20178;-67
2020/12/07 02:47:40;;;;;;;25.92;17.75;;;4.80;1.00;;;;;;5093909;28;20186;-67
2020/12/07 02:50:07;;;;;;;25.17;16.90;;;4.60;1.00;;;;;;5093897;28;20643;-67
2020/12/07 02:52:33;;;;;;;24.23;18.80;;;4.80;1.00;;;;;;5093848;28;20168;-67
2020/12/07 02:55:01;;;;;;;25.60;17.20;;;4.70;1.00;;;;;;5094545;28;20182;-67
2020/12/07 02:57:27;;;;;;;26.48;18.92;;;4.60;1.00;;;;;;5093707;28;20741;-67
2020/12/07 02:59:53;;;;;;;23.93;18.10;;;4.80;1.00;;;;;;5093347;28;20175;-67
2020/12/07 03:02:19;;;;;;;28.00;17.80;;;4.80;1.00;;;;;;5093662;28;20195;-67
2020/12/07 03:04:45;;;;;;;24.20;16.60;;;5.00;1.00;;;;;;5093545;28;20254;-67
2020/12/07 03:07:11;;;;;;;26.50;17.40;;;5.00;99.90;;;;;;5093467;28;20167;-67
2020/12/07 03:09:37;;;;;;;23.25;16.20;;;4.80;99.90;;;;;;5092635;28;20445;-66
2020/12/07 03:12:03;;;;;;;22.17;16.53;;;4.60;1.00;;;;;;5093872;28;20176;-67
2020/12/07 03:14:29;;;;;;;23.77;18.13;;;4.80;1.00;;;;;;5093390;28;20417;-67
2020/12/07 03:16:55;;;;;;;25.30;15.50;;;4.90;1.00;;;;;;5093483;28;20594;-67
2020/12/07 03:19:21;;;;;;;21.90;15.07;;;5.00;1.00;;;;;;5093429;28;20396;-66
2020/12/07 03:21:46;;;;;;;21.47;16.00;;;4.80;99.90;;;;;;5093275;28;20220;-67
2020/12/07 03:24:12;;;;;;;20.03;14.80;;;4.80;99.90;;;;;;5093207;28;20164;-67
2020/12/07 03:26:38;;;;;;;24.67;15.80;;;4.70;99.90;;;;;;5093424;28;20167;-67
2020/12/07 03:29:04;;;;;;;22.83;16.90;;;4.70;99.90;;;;;;5093314;28;20434;-67
2020/12/07 03:31:31;;;;;;;22.30;15.45;;;4.80;1.00;;;;;;5093116;28;20384;-67
2020/12/07 03:33:58;;;;;;;27.15;16.38;;;5.00;1.00;;;;;;5093021;28;20178;-67
2020/12/07 03:36:24;;;;;;;22.90;16.05;;;4.80;1.00;;;;;;5092976;28;20206;-67
2020/12/07 03:38:49;;;;;;;25.05;16.63;;;5.10;99.90;;;;;;5092994;28;20318;-67
2020/12/07 03:41:15;;;;;;;20.80;14.93;;;4.90;1.00;;;;;;5093038;28;20638;-67
2020/12/07 03:43:41;;;;;;;23.50;16.50;;;5.00;99.90;;;;;;5093250;28;20195;-67
2020/12/07 03:46:06;;;;;;;26.80;16.97;;;4.90;1.00;;;;;;5093164;28;20247;-67
2020/12/07 03:48:32;;;;;;;20.70;15.27;;;4.90;1.00;;;;;;5092955;28;20272;-67
2020/12/07 03:50:57;;;;;;;23.37;16.77;;;5.20;2.10;;;;;;5108653;28;20183;-67
2020/12/07 03:53:23;;;;;;;23.77;17.00;;;5.10;99.90;;;;;;5093137;28;20163;-67
2020/12/07 03:55:49;;;;;;;24.07;17.33;;;5.10;99.90;;;;;;5092734;28;20198;-67
2020/12/07 03:58:14;;;;;;;27.93;17.37;;;4.90;99.90;;;;;;5093041;28;20274;-67
2020/12/07 04:00:40;;;;;;;29.90;17.40;;;4.70;1.00;;;;;;5093395;28;20160;-67
2020/12/07 04:03:09;;;;;;;31.10;19.90;;;4.60;99.90;;;;;;5092760;28;20167;-67
2020/12/07 04:05:45;;;;;;;27.92;19.08;;;4.70;1.00;;;;;;5092985;28;20388;-67
2020/12/07 04:08:11;;;;;;;23.00;17.05;;;4.60;99.90;;;;;;5092888;28;20202;-67
2020/12/07 04:10:38;;;;;;;30.30;18.65;;;4.80;99.90;;;;;;5092755;28;20187;-67
2020/12/07 04:13:04;;;;;;;29.48;17.90;;;4.90;99.90;;;;;;5092610;28;20305;-67
2020/12/07 04:15:30;;;;;;;30.65;20.77;;;5.10;1.00;;;;;;5092611;28;20199;-67
2020/12/07 04:17:55;;;;;;;27.90;18.60;;;5.30;99.90;;;;;;5092794;28;20163;-67
2020/12/07 04:20:21;;;;;;;29.50;19.80;;;5.10;99.90;;;;;;5092984;28;20665;-67
2020/12/07 04:22:46;;;;;;;34.13;20.50;;;4.90;99.90;;;;;;5096482;28;20171;-67
2020/12/07 04:25:12;;;;;;;29.47;19.47;;;5.10;99.90;;;;;;5096403;28;20246;-66
2020/12/07 04:27:37;;;;;;;31.57;18.03;;;5.00;99.90;;;;;;5096621;28;20168;-67
2020/12/07 04:30:04;;;;;;;31.83;19.90;;;4.80;1.00;;;;;;5096219;28;20286;-67
2020/12/07 04:32:29;;;;;;;31.88;19.83;;;4.60;99.90;;;;;;5096223;28;20176;-67
2020/12/07 04:34:55;;;;;;;33.90;20.80;;;4.60;1.00;;;;;;5096363;28;20186;-67
2020/12/07 04:37:21;;;;;;;35.77;21.73;;;4.70;1.00;;;;;;5096101;28;20175;-67
2020/12/07 04:39:46;;;;;;;32.30;20.60;;;5.10;1.00;;;;;;5096263;28;20191;-67
2020/12/07 04:42:12;;;;;;;33.40;21.43;;;5.20;99.90;;;;;;5096231;28;20753;-67
2020/12/07 04:44:38;;;;;;;30.40;19.73;;;5.10;14.40;;;;;;5096018;28;20206;-67
2020/12/07 04:47:04;;;;;;;32.30;21.40;;;5.20;1.00;;;;;;5096219;28;20599;-67
2020/12/07 04:49:30;;;;;;;32.60;20.53;;;5.40;2.60;;;;;;5096102;28;20199;-67
2020/12/07 04:51:57;;;;;;;36.17;22.20;;;5.30;1.00;;;;;;5096226;28;20409;-66
2020/12/07 04:54:25;;;;;;;38.88;23.35;;;5.30;1.00;;;;;;5095989;28;20578;-66
2020/12/07 04:56:52;;;;;;;41.00;22.77;;;5.50;1.00;;;;;;5095969;28;20195;-67
2020/12/07 04:59:19;;;;;;;32.67;21.80;;;5.50;1.00;;;;;;5096183;28;20215;-67
2020/12/07 05:01:45;;;;;;;34.72;22.73;;;5.00;1.00;;;;;;5096442;28;20171;-67
2020/12/07 05:04:10;;;;;;;33.87;21.47;;;5.10;1.00;;;;;;5096097;28;20163;-67
2020/12/07 05:06:36;;;;;;;32.63;21.20;;;5.10;1.00;;;;;;5095514;28;20636;-67
2020/12/07 05:09:02;;;;;;;32.50;19.40;;;5.30;99.90;;;;;;5118023;22;20685;-66
2020/12/07 05:11:28;;;;;;;39.42;22.02;;;5.40;1.00;;;;;;5095535;28;20190;-67
2020/12/07 05:14:02;;;;;;;31.33;18.83;;;5.20;99.90;;;;;;5095504;28;20170;-66
2020/12/07 05:16:28;;;;;;;29.35;19.98;;;5.30;99.90;;;;;;5095677;28;20240;-67
2020/12/07 05:18:54;;;;;;;37.75;21.65;;;5.20;1.00;;;;;;5095538;28;20183;-67
2020/12/07 05:21:20;;;;;;;31.10;19.80;;;5.20;8.90;;;;;;5095286;28;20709;-67
2020/12/07 05:23:53;;;;;;;33.43;19.50;;;4.90;1.00;;;;;;5095191;28;20451;-67
2020/12/07 05:26:22;;;;;;;31.13;19.60;;;5.00;99.90;;;;;;5095583;28;20156;-66
2020/12/07 05:28:51;;;;;;;33.85;20.92;;;5.00;99.90;;;;;;5095401;28;20195;-67
2020/12/07 05:31:24;;;;;;;31.77;19.85;;;5.30;99.90;;;;;;5094985;28;20163;-67
2020/12/07 05:33:50;;;;;;;32.30;20.75;;;5.10;1.00;;;;;;5095287;28;20561;-67
2020/12/07 05:36:17;;;;;;;29.00;20.20;;;5.40;1.00;;;;;;5094915;28;20240;-67
2020/12/07 05:38:45;;;;;;;31.67;20.38;;;5.40;99.90;;;;;;5095055;28;20199;-67
2020/12/07 05:41:11;;;;;;;29.23;18.27;;;5.50;1.00;;;;;;5094922;28;20635;-67
2020/12/07 05:43:38;;;;;;;30.25;18.50;;;5.10;99.90;;;;;;5110356;28;20703;-67
2020/12/07 05:46:05;;;;;;;29.00;17.95;;;4.90;1.00;;;;;;5094806;28;20171;-67
2020/12/07 05:48:32;;;;;;;27.85;19.17;;;4.90;99.90;;;;;;5110290;28;20206;-67
2020/12/07 05:51:03;;;;;;;35.45;18.70;;;4.90;99.90;;;;;;5094557;28;20179;-67
2020/12/07 05:53:34;;;;;;;26.40;18.25;;;5.00;1.00;;;;;;5094570;28;20197;-67
2020/12/07 05:56:02;;;;;;;28.52;18.30;;;5.30;99.90;;;;;;5094784;28;20336;-67
2020/12/07 05:58:29;;;;;;;31.23;18.45;;;5.50;99.90;;;;;;5094537;28;20191;-67
2020/12/07 06:00:58;;;;;;;29.65;18.77;;;5.30;1.00;;;;;;5094823;28;20171;-67
2020/12/07 06:03:24;;;;;;;30.20;19.77;;;5.60;99.90;;;;;;5094389;28;20175;-67
2020/12/07 06:05:50;;;;;;;25.13;17.42;;;5.30;52.50;;;;;;5094276;28;20168;-67
2020/12/07 06:08:15;;;;;;;28.30;18.10;;;5.20;28.60;;;;;;5094071;28;20535;-67
2020/12/07 06:10:50;;;;;;;27.17;18.33;;;5.10;99.90;;;;;;5094584;28;20707;-67
2020/12/07 06:13:22;;;;;;;30.55;20.05;;;5.20;1.00;;;;;;5094462;28;20527;-67
2020/12/07 06:15:49;;;;;;;32.75;20.67;;;5.40;99.90;;;;;;5109462;28;20205;-67
2020/12/07 06:18:42;;;;;;;32.65;20.80;;;5.40;99.90;;;;;;5094000;28;20170;-67
2020/12/07 06:21:16;;;;;;;28.30;18.40;;;5.70;99.90;;;;;;5092523;28;20236;-67
2020/12/07 06:23:43;;;;;;;27.38;18.38;;;5.40;1.00;;;;;;5093893;28;20577;-67
2020/12/07 06:26:12;;;;;;;30.55;20.58;;;5.60;96.60;;;;;;5094241;28;20244;-67
2020/12/07 06:28:40;;;;;;;32.55;21.90;;;5.50;1.00;;;;;;5093831;28;20194;-67
2020/12/07 06:31:07;;;;;;;29.95;21.15;;;5.50;99.90;;;;;;5093770;28;20174;-67
2020/12/07 06:33:42;;;;;;;35.60;23.77;;;5.30;99.90;;;;;;5093710;28;20166;-67
2020/12/07 06:36:23;;;;;;;38.20;22.70;;;5.20;1.00;;;;;;5093406;28;20201;-69
2020/12/07 06:38:49;;;;;;;36.60;24.58;;;5.20;99.90;;;;;;5093829;28;20183;-67
2020/12/07 06:41:28;;;;;;;32.43;19.73;;;5.30;1.00;;;;;;5093499;28;20160;-67
2020/12/07 06:43:58;;;;;;;29.92;19.55;;;5.40;99.90;;;;;;5093165;28;20242;-67
2020/12/07 06:46:46;;;;;;;28.17;20.63;;;5.60;99.90;;;;;;5093992;28;20245;-67
2020/12/07 06:49:13;;;;;;;24.58;19.15;;;5.40;5.60;;;;;;5093880;28;20509;-67
2020/12/07 06:51:39;;;;;;;28.75;18.88;;;5.50;99.90;;;;;;5093131;28;20293;-66
2020/12/07 06:55:01;;;;;;;28.67;19.30;;;5.20;1.00;;;;;;5093673;28;20179;-67
2020/12/07 06:56:52;;;;;;;27.58;18.63;;;5.10;99.90;;;;;;5093134;28;20439;-67
2020/12/07 06:59:18;;;;;;;32.03;20.10;;;5.10;99.90;;;;;;5092961;28;20537;-67
2020/12/07 07:01:50;;;;;;;28.07;18.80;;;5.30;99.90;;;;;;5093409;28;20167;-67
2020/12/07 07:04:19;;;;;;;26.90;18.20;;;5.30;8.40;;;;;;5093240;28;20171;-67
2020/12/07 07:06:44;;;;;;;29.05;17.65;;;5.40;99.90;;;;;;5092918;28;20171;-67
2020/12/07 07:09:10;;;;;;;27.23;17.00;;;5.60;99.90;;;;;;5093102;28;20253;-72
2020/12/07 07:11:36;;;;;;;28.10;19.37;;;5.70;24.30;;;;;;5093232;28;20164;-67
2020/12/07 07:14:02;;;;;;;28.67;18.40;;;5.50;99.90;;;;;;5093257;28;20171;-67
2020/12/07 07:16:27;;;;;;;25.47;17.57;;;5.20;99.90;;;;;;5092852;28;20202;-67
2020/12/07 07:18:53;;;;;;;32.43;19.93;;;5.40;99.90;;;;;;5093421;28;20491;-68
2020/12/07 07:21:18;;;;;;;26.40;18.20;;;5.60;1.00;;;;;;5093627;28;20175;-68
2020/12/07 07:23:45;;;;;;;34.27;20.40;;;5.50;99.90;;;;;;5093226;28;20254;-67
2020/12/07 07:26:26;;;;;;;32.05;21.02;;;5.70;99.90;;;;;;5092900;28;20171;-68
2020/12/07 07:28:52;;;;;;;27.45;18.73;;;5.60;99.90;;;;;;5108445;28;20187;-68
2020/12/07 07:31:17;;;;;;;26.03;19.03;;;5.30;99.90;;;;;;5092779;28;20178;-68
2020/12/07 07:33:44;;;;;;;26.85;16.90;;;5.40;1.00;;;;;;5093610;28;20171;-68
2020/12/07 07:36:23;;;;;;;30.88;18.33;;;5.70;1.00;;;;;;5092657;28;20195;-68
2020/12/07 07:38:57;;;;;;;28.98;19.85;;;5.40;99.90;;;;;;5092839;28;20179;-68
2020/12/07 07:41:29;;;;;;;37.13;22.88;;;5.60;1.00;;;;;;5092477;28;20254;-66
2020/12/07 07:43:56;;;;;;;26.02;18.08;;;5.50;99.90;;;;;;5092676;28;20172;-67
2020/12/07 07:46:23;;;;;;;26.20;16.65;;;5.70;23.20;;;;;;5092237;28;20640;-67
2020/12/07 07:52:14;;;;;;;24.50;16.33;;;5.80;99.90;;;;;;5092513;28;20170;-67
2020/12/07 08:15:49;;;;;;;24.77;16.00;;;6.00;99.90;;;;;;5096627;28;20243;-68
2020/12/07 08:18:23;;;;;;;23.75;14.63;;;6.00;99.90;;;;;;5096594;28;20182;-68
2020/12/07 08:20:52;;;;;;;24.90;15.43;;;6.00;99.90;;;;;;5096166;28;20181;-68
2020/12/07 08:23:25;;;;;;;26.38;16.05;;;6.00;18.90;;;;;;5096495;28;20187;-68
2020/12/07 08:25:52;;;;;;;25.38;15.35;;;6.10;45.10;;;;;;5096535;28;20248;-68
2020/12/07 08:28:17;;;;;;;25.10;14.20;;;6.20;1.00;;;;;;5096283;28;20171;-68
2020/12/07 08:31:04;;;;;;;23.40;14.67;;;6.10;1.00;;;;;;5096391;28;20655;-68
2020/12/07 08:33:31;;;;;;;21.33;13.73;;;6.10;99.90;;;;;;5096062;28;20159;-67
2020/12/07 08:35:57;;;;;;;21.35;13.90;;;5.90;99.90;;;;;;5095663;28;20203;-67
2020/12/07 08:38:37;;;;;;;22.85;13.45;;;6.10;99.90;;;;;;5095703;28;20246;-67
2020/12/07 08:41:15;;;;;;;20.65;13.48;;;6.10;99.90;;;;;;5096044;28;20148;-67
2020/12/07 08:43:43;;;;;;;20.45;12.60;;;5.90;99.90;;;;;;5096034;28;20155;-68
2020/12/07 08:46:11;;;;;;;19.95;11.18;;;5.90;1.00;;;;;;5095544;28;20159;-67
2020/12/07 08:48:38;;;;;;;25.45;14.70;;;6.10;1.00;;;;;;5095992;28;20551;-68
2020/12/07 08:51:04;;;;;;;21.05;14.32;;;6.10;99.90;;;;;;5095997;28;20175;-69
2020/12/07 08:53:29;;;;;;;20.63;14.23;;;6.10;99.90;;;;;;5095450;28;20172;-68
2020/12/07 08:55:55;;;;;;;23.83;13.67;;;6.00;1.00;;;;;;5095568;28;20473;-68
2020/12/07 08:58:20;;;;;;;18.93;12.77;;;6.20;1.00;;;;;;5095314;28;20167;-67
2020/12/07 09:00:46;;;;;;;21.83;12.87;;;6.20;99.90;;;;;;5095543;28;20164;-67
2020/12/07 09:03:13;;;;;;;18.23;11.37;;;6.30;99.90;;;;;;5095578;28;20164;-67
2020/12/07 09:05:39;;;;;;;16.10;10.25;;;6.40;99.90;;;;;;5095097;28;20578;-68
2020/12/07 09:08:06;;;;;;;17.63;11.77;;;6.30;99.90;;;;;;5095311;28;20206;-67
2020/12/07 09:10:32;;;;;;;14.35;9.98;;;6.20;99.90;;;;;;5095069;28;20248;-67
2020/12/07 09:12:57;;;;;;;13.67;10.63;;;6.00;99.90;;;;;;5095964;28;20183;-67
2020/12/07 09:15:23;;;;;;;18.03;10.00;;;6.10;79.30;;;;;;5094824;28;20409;-67
2020/12/07 09:17:48;;;;;;;16.63;10.23;;;6.10;99.90;;;;;;5095193;28;20156;-67
2020/12/07 09:20:14;;;;;;;12.93;10.47;;;6.20;1.00;;;;;;5094659;28;20190;-67
2020/12/07 09:22:39;;;;;;;14.07;9.43;;;6.30;1.00;;;;;;5094835;28;20243;-67
2020/12/07 09:25:05;;;;;;;13.20;9.10;;;6.40;1.00;;;;;;5095168;28;20171;-69
2020/12/07 09:27:31;;;;;;;18.30;10.00;;;6.30;1.00;;;;;;5095070;28;20174;-67
2020/12/07 09:29:56;;;;;;;14.87;9.67;;;6.10;99.90;;;;;;5094771;28;20189;-68
2020/12/07 09:32:22;;;;;;;12.60;8.60;;;6.10;99.90;;;;;;5095279;28;20163;-67
2020/12/07 09:34:47;;;;;;;20.93;8.10;;;6.10;1.00;;;;;;5095099;28;20172;-68
2020/12/07 09:37:13;;;;;;;13.37;7.50;;;5.90;99.90;;;;;;5095065;28;20198;-68
2020/12/07 09:39:38;;;;;;;10.40;7.43;;;6.10;99.90;;;;;;5094930;28;20195;-66
2020/12/07 09:42:04;;;;;;;9.47;5.60;;;6.20;99.90;;;;;;5095290;28;20173;-67
2020/12/07 09:44:29;;;;;;;8.57;6.60;;;6.20;99.90;;;;;;5094554;28;20160;-67
2020/12/07 09:46:55;;;;;;;7.17;5.80;;;6.20;99.90;;;;;;5095109;28;20170;-66
2020/12/07 09:49:21;;;;;;;8.70;6.30;;;6.10;99.90;;;;;;5100194;28;20252;-67
2020/12/07 09:51:47;;;;;;;9.23;6.33;;;6.20;99.90;;;;;;5096617;28;20175;-67
2020/12/07 09:54:13;;;;;;;9.65;6.00;;;6.20;99.90;;;;;;5094818;28;20171;-67
2020/12/07 09:56:39;;;;;;;7.13;5.72;;;6.20;1.00;;;;;;5093121;28;20668;-67
2020/12/07 09:59:04;;;;;;;7.97;6.03;;;6.10;1.00;;;;;;5094399;28;20198;-67
2020/12/07 10:01:30;;;;;;;8.83;5.57;;;6.10;1.00;;;;;;5094636;28;20217;-67
2020/12/07 10:03:55;;;;;;;5.80;5.23;;;6.10;99.90;;;;;;5095324;28;20159;-67
2020/12/07 10:06:21;;;;;;;7.03;5.27;;;5.90;99.90;;;;;;5094489;28;20193;-67
2020/12/07 10:08:46;;;;;;;11.30;5.37;;;6.00;1.00;;;;;;5094198;28;20195;-68
2020/12/07 10:11:15;;;;;;;6.77;4.57;;;6.20;99.90;;;;;;5094371;28;20174;-67
2020/12/07 10:13:42;;;;;;;7.60;5.30;;;6.30;99.90;;;;;;5093846;28;20250;-67
2020/12/07 10:16:08;;;;;;;6.47;4.60;;;6.30;99.90;;;;;;5093620;28;20192;-67
2020/12/07 10:18:33;;;;;;;6.57;4.50;;;6.00;99.90;;;;;;5093590;28;20668;-68
2020/12/07 10:20:59;;;;;;;11.07;5.40;;;6.20;99.90;;;;;;5093808;28;20172;-67
2020/12/07 10:23:24;;;;;;;4.57;3.90;;;6.40;99.90;;;;;;5093694;28;20262;-67
2020/12/07 10:25:50;;;;;;;8.07;5.33;;;6.20;99.90;;;;;;5093754;28;20175;-67
2020/12/07 10:28:16;;;;;;;4.43;4.00;;;6.20;1.00;;;;;;5093638;28;20172;-67
2020/12/07 10:30:42;;;;;;;5.20;4.20;;;6.10;45.90;;;;;;5093977;28;20969;-68
2020/12/07 10:33:07;;;;;;;10.03;5.27;;;6.00;99.90;;;;;;5093387;28;20241;-68
2020/12/07 10:35:33;;;;;;;6.10;4.70;;;6.00;1.00;;;;;;5093671;28;20195;-68
2020/12/07 10:37:59;;;;;;;5.80;4.23;;;6.20;1.00;;;;;;5093729;28;20233;-69
2020/12/07 10:40:24;;;;;;;7.33;5.43;;;6.40;99.90;;;;;;5093629;28;20598;-67
2020/12/07 10:42:50;;;;;;;5.40;4.73;;;6.30;1.00;;;;;;5093331;28;20168;-67
2020/12/07 10:45:15;;;;;;;5.33;4.33;;;6.40;1.00;;;;;;5093721;28;20262;-67
2020/12/07 10:47:41;;;;;;;6.80;4.90;;;6.30;99.90;;;;;;5093430;28;20206;-67
2020/12/07 10:50:07;;;;;;;6.07;4.73;;;6.30;45.80;;;;;;5093291;28;20194;-67
2020/12/07 10:52:32;;;;;;;7.03;4.83;;;6.50;33.30;;;;;;5093230;28;20246;-67
2020/12/07 10:54:58;;;;;;;6.60;4.20;;;6.60;99.90;;;;;;5093571;28;20201;-67
2020/12/07 10:57:23;;;;;;;5.43;4.47;;;6.60;1.00;;;;;;5093232;28;20192;-67
2020/12/07 10:59:49;;;;;;;6.53;5.30;;;6.50;99.90;;;;;;5093192;28;20554;-67
2020/12/07 11:02:15;;;;;;;5.33;4.80;;;6.40;1.00;;;;;;5091637;28;20225;-67
2020/12/07 11:04:40;;;;;;;7.73;5.20;;;6.20;1.00;;;;;;5092942;28;20627;-67
2020/12/07 11:07:11;;;;;;;7.53;4.80;;;6.60;99.90;;;;;;5092912;28;20201;-68
2020/12/07 11:09:37;;;;;;;10.82;5.45;;;6.60;1.00;;;;;;5116066;22;20276;-69
2020/12/07 11:12:05;;;;;;;6.37;4.90;;;6.80;1.00;;;;;;5093840;28;20254;-68
2020/12/07 11:14:31;;;;;;;7.75;4.60;;;6.80;99.90;;;;;;5093615;28;20171;-68
2020/12/07 11:17:00;;;;;;;6.97;4.90;;;6.90;99.90;;;;;;5094059;28;20252;-68
2020/12/07 11:19:25;;;;;;;5.95;4.95;;;6.70;99.90;;;;;;5093511;28;20183;-67
2020/12/07 11:21:51;;;;;;;6.10;5.50;;;6.70;1.00;;;;;;5093336;28;20689;-68
2020/12/07 11:24:16;;;;;;;7.07;4.53;;;6.90;1.00;;;;;;5093578;28;20168;-69
2020/12/07 11:26:42;;;;;;;6.67;5.80;;;6.80;99.90;;;;;;5093380;28;20229;-68
2020/12/07 11:29:08;;;;;;;7.17;5.30;;;6.90;99.90;;;;;;5093502;28;20608;-69
2020/12/07 11:31:33;;;;;;;7.73;5.33;;;6.90;99.90;;;;;;5094018;28;20259;-69
2020/12/07 11:33:59;;;;;;;7.57;6.27;;;7.00;99.90;;;;;;5093261;28;20562;-68
2020/12/07 11:36:25;;;;;;;7.90;6.30;;;7.00;99.90;;;;;;5093110;28;20214;-68
2020/12/07 11:44:14;;;;;;;9.23;5.38;;;7.10;1.00;;;;;;5093240;28;20176;-68
2020/12/07 11:46:43;;;;;;;9.45;6.07;;;6.80;1.00;;;;;;5093185;28;20156;-68
2020/12/07 11:49:09;;;;;;;9.10;6.80;;;7.10;99.90;;;;;;5093897;28;20187;-68
2020/12/07 11:51:35;;;;;;;8.90;5.37;;;7.20;99.90;;;;;;5092155;28;20240;-68
2020/12/07 11:54:00;;;;;;;7.17;5.43;;;6.90;99.90;;;;;;5093119;28;20384;-67
2020/12/07 11:56:27;;;;;;;7.87;6.60;;;6.90;1.00;;;;;;5093108;28;20195;-68
2020/12/07 11:58:52;;;;;;;8.98;6.32;;;6.70;1.00;;;;;;5094996;28;20222;-67
2020/12/07 12:01:18;;;;;;;7.77;5.57;;;6.90;1.00;;;;;;5094583;28;20160;-68
2020/12/07 12:03:43;;;;;;;8.13;5.47;;;6.90;1.00;;;;;;5092926;28;20285;-67
2020/12/07 12:06:09;;;;;;;9.80;6.87;;;6.70;99.90;;;;;;5092598;28;20167;-68
2020/12/07 12:08:34;;;;;;;9.20;5.93;;;6.80;99.90;;;;;;5092799;28;20187;-68
2020/12/07 12:11:00;;;;;;;10.57;6.10;;;6.80;1.00;;;;;;5092597;28;20218;-68
2020/12/07 12:13:25;;;;;;;8.53;6.30;;;6.90;1.00;;;;;;5092583;28;20229;-67
2020/12/07 12:15:52;;;;;;;8.23;5.90;;;6.90;1.00;;;;;;5092890;28;20606;-67
2020/12/07 12:18:17;;;;;;;11.10;6.50;;;7.00;99.90;;;;;;5092626;28;20670;-68
2020/12/07 12:20:46;;;;;;;7.77;6.33;;;7.00;99.90;;;;;;5090936;28;20187;-68
2020/12/07 12:23:12;;;;;;;8.88;5.57;;;7.00;99.90;;;;;;5091202;28;20159;-68
2020/12/07 12:25:41;;;;;;;9.30;7.40;;;6.90;99.90;;;;;;5091187;28;20265;-68
2020/12/07 12:28:07;;;;;;;9.43;6.90;;;6.80;1.00;;;;;;5093009;28;20175;-67
2020/12/07 12:30:33;;;;;;;8.43;6.55;;;6.90;1.00;;;;;;5093251;28;20187;-69
2020/12/07 12:32:58;;;;;;;9.63;6.70;;;6.90;1.00;;;;;;5092479;28;20191;-69
2020/12/07 12:35:25;;;;;;;12.03;7.13;;;7.00;1.00;;;;;;5092181;28;20613;-69
2020/12/07 12:37:51;;;;;;;16.40;9.75;;;7.10;1.00;;;;;;5092917;28;20242;-69
2020/12/07 12:40:17;;;;;;;10.70;7.23;;;7.20;1.00;;;;;;5092072;28;20725;-69
2020/12/07 12:42:42;;;;;;;5.93;5.17;;;7.20;1.00;;;;;;5094506;28;20439;-69
2020/12/07 12:45:08;;;;;;;9.60;5.83;;;7.20;1.00;;;;;;5095864;28;20164;-69
2020/12/07 12:47:33;;;;;;;8.30;6.83;;;7.10;99.90;;;;;;5096572;28;20168;-69
2020/12/07 12:49:59;;;;;;;12.23;5.63;;;7.10;99.90;;;;;;5096401;28;20270;-68
2020/12/07 12:52:24;;;;;;;8.10;6.20;;;6.90;1.00;;;;;;5096052;28;20573;-69
2020/12/07 12:54:50;;;;;;;9.50;6.17;;;6.90;1.00;;;;;;5096477;28;20171;-69
2020/12/07 12:57:15;;;;;;;6.93;5.60;;;7.00;1.00;;;;;;5095436;28;20191;-69
2020/12/07 12:59:41;;;;;;;9.23;7.20;;;7.10;1.00;;;;;;5095460;28;20251;-69
2020/12/07 13:02:07;;;;;;;8.87;7.47;;;7.00;1.00;;;;;;5095769;28;20201;-68
2020/12/07 13:04:32;;;;;;;11.63;7.60;;;7.00;94.10;;;;;;5095053;28;20171;-70
2020/12/07 13:06:58;;;;;;;10.77;6.80;;;7.10;44.20;;;;;;5095610;28;20211;-70
2020/12/07 13:09:24;;;;;;;9.20;6.57;;;7.10;99.90;;;;;;5095443;28;20242;-70
2020/12/07 13:11:50;;;;;;;10.27;7.63;;;7.10;99.90;;;;;;5095320;28;20659;-70
2020/12/07 13:14:15;;;;;;;8.87;6.60;;;7.10;1.00;;;;;;5095600;28;20172;-70